Agapovka, Russia
Current Conditions -  °F | °C
As of 8:00 AM on Tuesday 25 Nov 2014 (Local Time) from USCM Reporting Station
Scattered Clouds Scattered Clouds  
Wind Chill: -5°   Ceiling: Unl
Heat Index: 14°   Visibility: 5mi
Dew Point: -13°   Wind: 25mph
Humidity: 29%   Direction: 340°NNW
Pressure: 30.48"   Gusts: NA
Location:  53.3°N, 59.14°E
Report Text: USCM 250200Z 34011MPS 8000 SCT100 M10/M25 Q1032 TEMPO 35015MPS01090060 RMK QFE735
Loading
Personal Weather Stations






























Interactive Weather Map New forecast layout! Learn more

10-Day Weather Forecast

Advertisements
Track Severe Weather on mobile